createdAt,value
2023-02-11T00:02:59.073Z,-4.95
2023-02-11T00:06:38.802Z,-5.04
2023-02-11T00:09:47.989Z,-5.16
2023-02-11T00:13:00.008Z,-5.22
2023-02-11T00:16:23.447Z,-5.29
2023-02-11T00:19:28.579Z,-5.26
2023-02-11T00:22:51.096Z,-5.33
2023-02-11T00:26:40.993Z,-5.41
2023-02-11T00:29:43.935Z,-5.43
2023-02-11T00:33:08.039Z,-5.53
2023-02-11T00:36:31.437Z,-5.53
2023-02-11T00:39:43.331Z,-5.55
2023-02-11T00:43:07.274Z,-5.55
2023-02-11T00:46:10.811Z,-5.39
2023-02-11T00:49:15.973Z,-5.53
2023-02-11T00:52:39.916Z,-5.59
2023-02-11T00:55:49.409Z,-5.74
2023-02-11T00:58:54.024Z,-5.74
2023-02-11T01:01:56.966Z,-5.77
2023-02-11T01:05:05.579Z,-5.81
2023-02-11T01:08:10.270Z,-5.90
2023-02-11T01:11:19.694Z,-5.85
2023-02-11T01:14:42.747Z,-5.92
2023-02-11T01:17:50.436Z,-5.90
2023-02-11T01:21:16.606Z,-5.99
2023-02-11T01:24:20.983Z,-5.95
2023-02-11T01:27:23.486Z,-5.93
2023-02-11T01:30:31.772Z,-6.01
2023-02-11T01:33:41.217Z,-6.03
2023-02-11T01:37:05.987Z,-6.01
2023-02-11T01:40:20.449Z,-6.03
2023-02-11T01:43:37.815Z,-6.11
2023-02-11T01:47:06.456Z,-6.08
2023-02-11T01:50:13.257Z,-6.17
2023-02-11T01:53:37.332Z,-6.19
2023-02-11T01:57:07.503Z,-6.23
2023-02-11T02:00:36.694Z,-6.29
2023-02-11T02:04:13.480Z,-6.28
2023-02-11T02:07:49.809Z,-6.34
2023-02-11T02:11:01.127Z,-6.38
2023-02-11T02:14:27.051Z,-6.37
2023-02-11T02:18:30.184Z,-6.33
2023-02-11T02:21:43.567Z,-6.39
2023-02-11T02:25:01.187Z,-6.43
2023-02-11T02:28:24.970Z,-6.41
2023-02-11T02:31:50.592Z,-6.42
2023-02-11T02:35:26.520Z,-6.44
2023-02-11T02:38:40.889Z,-6.55
2023-02-11T02:41:53.659Z,-6.57
2023-02-11T02:44:58.467Z,-6.53
2023-02-11T02:48:01.930Z,-6.56
2023-02-11T02:51:42.822Z,-6.65
2023-02-11T02:54:59.806Z,-6.52
2023-02-11T02:58:43.127Z,-6.70
2023-02-11T03:01:57.923Z,-6.76
2023-02-11T03:05:12.233Z,-6.75
2023-02-11T03:08:37.846Z,-6.72
2023-02-11T03:11:47.690Z,-6.51
2023-02-11T03:14:52.795Z,-6.61
2023-02-11T03:18:03.224Z,-6.61
2023-02-11T03:21:09.306Z,-6.73
2023-02-11T03:24:20.840Z,-6.76
2023-02-11T03:27:47.819Z,-6.78
2023-02-11T03:31:20.620Z,-6.82
2023-02-11T03:34:51.445Z,-6.89
2023-02-11T03:38:16.450Z,-6.78
2023-02-11T03:41:23.542Z,-6.79
2023-02-11T03:44:33.414Z,-6.86
2023-02-11T03:48:09.233Z,-6.83
2023-02-11T03:51:33.689Z,-6.80
2023-02-11T03:55:21.071Z,-6.85
2023-02-11T03:58:27.567Z,-6.85
2023-02-11T04:01:35.960Z,-6.88
2023-02-11T04:04:44.115Z,-6.88
2023-02-11T04:07:50.978Z,-6.94
2023-02-11T04:11:19.060Z,-6.98
2023-02-11T04:15:02.025Z,-7.02
2023-02-11T04:18:26.950Z,-7.02
2023-02-11T04:21:49.891Z,-7.05
2023-02-11T04:24:55.464Z,-7.11
2023-02-11T04:28:20.081Z,-6.82
2023-02-11T04:31:26.305Z,-7.03
2023-02-11T04:34:29.809Z,-7.13
2023-02-11T04:37:36.228Z,-7.15
2023-02-11T04:40:46.682Z,-7.22
2023-02-11T04:43:49.964Z,-7.25
2023-02-11T04:46:53.629Z,-7.20
2023-02-11T04:50:00.595Z,-7.15
2023-02-11T04:53:06.310Z,-7.25
2023-02-11T04:56:10.567Z,-7.19
2023-02-11T04:59:15.116Z,-7.20
2023-02-11T05:02:18.940Z,-7.21
2023-02-11T05:05:42.598Z,-7.24
2023-02-11T05:09:12.382Z,-7.17
2023-02-11T05:12:19.002Z,-7.20
2023-02-11T05:15:26.988Z,-7.32
2023-02-11T05:18:30.339Z,-7.30
2023-02-11T05:21:36.311Z,-7.29
2023-02-11T05:24:42.911Z,-7.34
2023-02-11T05:28:07.356Z,-7.30
2023-02-11T05:31:11.542Z,-7.34
2023-02-11T05:34:19.334Z,-7.31
2023-02-11T05:37:24.555Z,-7.30
2023-02-11T05:40:29.267Z,-7.33
2023-02-11T05:43:36.592Z,-7.34
2023-02-11T05:46:47.254Z,-7.35
2023-02-11T05:49:56.410Z,-7.37
2023-02-11T05:52:59.842Z,-7.39
2023-02-11T05:56:11.997Z,-7.37
2023-02-11T05:59:16.780Z,-7.31
2023-02-11T06:02:21.341Z,-7.29
2023-02-11T06:05:30.718Z,-7.31
2023-02-11T06:08:43.052Z,-7.29
2023-02-11T06:12:10.619Z,-7.25
2023-02-11T06:15:35.682Z,-7.26
2023-02-11T06:19:07.736Z,-7.09
2023-02-11T06:22:10.634Z,-7.05
2023-02-11T06:25:33.910Z,-6.98
2023-02-11T06:28:40.024Z,-6.83
2023-02-11T06:31:46.000Z,-6.65
2023-02-11T06:34:52.162Z,-6.45
2023-02-11T06:37:59.822Z,-6.24
2023-02-11T06:41:47.997Z,-6.08
2023-02-11T06:45:20.723Z,-5.94
2023-02-11T06:48:29.347Z,-5.66
2023-02-11T06:51:53.155Z,-5.51
2023-02-11T06:54:56.032Z,-5.36
2023-02-11T06:58:00.273Z,-5.21
2023-02-11T07:01:09.100Z,-5.00
2023-02-11T07:04:16.956Z,-4.93
2023-02-11T07:07:20.570Z,-4.84
2023-02-11T07:10:26.519Z,-4.75
2023-02-11T07:13:29.112Z,-4.77
2023-02-11T07:16:33.346Z,-4.60
2023-02-11T07:19:35.958Z,-4.46
2023-02-11T07:23:12.526Z,-4.34
2023-02-11T07:26:23.293Z,-4.21
2023-02-11T07:29:28.085Z,-4.02
2023-02-11T07:32:36.270Z,-3.76
2023-02-11T07:35:42.543Z,-3.86
2023-02-11T07:39:03.071Z,-3.57
2023-02-11T07:42:06.655Z,-3.11
2023-02-11T07:45:29.846Z,-2.77
2023-02-11T07:49:05.906Z,-2.38
2023-02-11T07:52:11.416Z,-2.11
2023-02-11T07:55:14.750Z,-2.27
2023-02-11T07:58:18.153Z,-2.11
2023-02-11T08:01:28.363Z,-1.64
2023-02-11T08:04:53.958Z,-1.16
2023-02-11T08:07:58.575Z,-1.17
2023-02-11T08:11:15.888Z,-0.91
2023-02-11T08:14:38.635Z,-1.10
2023-02-11T08:18:13.967Z,-0.76
2023-02-11T08:21:37.904Z,-0.52
2023-02-11T08:24:46.937Z,-0.37
2023-02-11T08:27:55.309Z,0.05
2023-02-11T08:31:05.724Z,0.22
2023-02-11T08:34:12.016Z,0.33
2023-02-11T08:37:18.337Z,0.37
2023-02-11T08:40:21.642Z,0.20
2023-02-11T08:43:28.090Z,0.43
2023-02-11T08:46:52.111Z,0.61
2023-02-11T08:49:56.598Z,0.64
2023-02-11T08:53:20.257Z,0.13
2023-02-11T08:56:33.708Z,0.05
2023-02-11T08:59:40.152Z,0.24
2023-02-11T09:02:42.741Z,0.04
2023-02-11T09:05:50.578Z,0.03
2023-02-11T09:08:56.554Z,0.08
2023-02-11T09:12:03.608Z,0.17
2023-02-11T09:15:38.975Z,0.00
2023-02-11T09:19:23.554Z,-0.18
2023-02-11T09:22:48.666Z,-0.11
2023-02-11T09:26:00.103Z,0.10
2023-02-11T09:29:05.136Z,0.22
2023-02-11T09:32:12.476Z,0.64
2023-02-11T09:35:19.601Z,1.21
2023-02-11T09:38:44.254Z,1.55
2023-02-11T09:42:10.838Z,2.06
2023-02-11T09:45:28.758Z,1.70
2023-02-11T09:48:55.729Z,1.66
2023-02-11T09:52:27.272Z,2.01
2023-02-11T09:55:56.069Z,2.71
2023-02-11T09:58:59.648Z,3.28
2023-02-11T10:02:14.540Z,3.03
2023-02-11T10:06:04.028Z,3.16
2023-02-11T10:09:19.058Z,3.60
2023-02-11T10:12:49.847Z,3.10
2023-02-11T10:16:06.820Z,3.34
2023-02-11T10:19:51.703Z,2.91
2023-02-11T10:23:21.553Z,2.71
2023-02-11T10:26:32.310Z,3.02
2023-02-11T10:29:43.477Z,2.61
2023-02-11T10:32:54.738Z,2.21
2023-02-11T10:36:18.662Z,2.57
2023-02-11T10:39:28.154Z,2.58
2023-02-11T10:42:32.663Z,2.59
2023-02-11T10:46:17.734Z,2.62
2023-02-11T10:49:39.432Z,2.53
2023-02-11T10:52:44.358Z,2.89
2023-02-11T10:56:00.020Z,2.80
2023-02-11T10:59:14.010Z,3.00
2023-02-11T11:02:38.824Z,2.97
2023-02-11T11:06:02.919Z,3.02
2023-02-11T11:09:21.892Z,2.69
2023-02-11T11:12:48.988Z,3.38
2023-02-11T11:16:12.163Z,3.57
2023-02-11T11:19:21.834Z,3.78
2023-02-11T11:22:47.461Z,3.94
2023-02-11T11:26:29.271Z,4.14
2023-02-11T11:29:51.491Z,4.77
2023-02-11T11:32:54.738Z,4.82
2023-02-11T11:36:12.861Z,4.50
2023-02-11T11:39:19.550Z,4.06
2023-02-11T11:42:33.915Z,4.50
2023-02-11T11:45:59.543Z,4.16
2023-02-11T11:49:31.054Z,4.66
2023-02-11T11:53:19.348Z,4.40
2023-02-11T11:56:26.440Z,4.71
2023-02-11T11:59:30.530Z,5.59
2023-02-11T12:03:19.301Z,4.92
2023-02-11T12:06:31.384Z,5.85
2023-02-11T12:09:51.285Z,6.15
2023-02-11T12:13:08.021Z,6.23
2023-02-11T12:16:23.437Z,5.78
2023-02-11T12:20:03.810Z,5.84
2023-02-11T12:23:38.728Z,6.08
2023-02-11T12:26:56.654Z,6.16
2023-02-11T12:30:15.857Z,5.94
2023-02-11T12:33:26.974Z,5.88
2023-02-11T12:37:27.880Z,5.88
2023-02-11T12:41:07.202Z,5.98
2023-02-11T12:44:48.480Z,6.13
2023-02-11T12:47:58.264Z,5.96
2023-02-11T12:51:05.562Z,6.16
2023-02-11T12:54:11.068Z,6.18
2023-02-11T12:57:24.749Z,6.33
2023-02-11T13:00:47.692Z,6.45
2023-02-11T13:03:59.179Z,6.48
2023-02-11T13:07:26.161Z,6.52
2023-02-11T13:10:38.319Z,6.82
2023-02-11T13:14:01.823Z,6.53
2023-02-11T13:17:20.165Z,6.66
2023-02-11T13:20:49.372Z,7.13
2023-02-11T13:24:08.497Z,7.27
2023-02-11T13:27:45.963Z,7.21
2023-02-11T13:30:57.601Z,7.45
2023-02-11T13:34:01.306Z,7.18
2023-02-11T13:37:12.927Z,6.78
2023-02-11T13:40:41.055Z,6.64
2023-02-11T13:43:45.589Z,7.20
2023-02-11T13:47:01.529Z,6.66
2023-02-11T13:50:08.459Z,6.68
2023-02-11T13:53:12.357Z,6.59
2023-02-11T13:56:46.338Z,6.95
2023-02-11T13:59:51.030Z,6.92
2023-02-11T14:03:32.278Z,6.81
2023-02-11T14:07:45.537Z,6.77
2023-02-11T14:10:53.167Z,6.71
2023-02-11T14:14:18.178Z,6.93
2023-02-11T14:17:31.631Z,7.13
2023-02-11T14:20:39.718Z,6.95
2023-02-11T14:24:02.335Z,6.82
2023-02-11T14:27:30.678Z,6.77
2023-02-11T14:30:42.830Z,6.78
2023-02-11T14:34:24.520Z,6.82
2023-02-11T14:38:07.562Z,6.69
2023-02-11T14:41:51.496Z,6.81
2023-02-11T14:45:05.241Z,6.75
2023-02-11T14:48:16.052Z,6.63
2023-02-11T14:51:27.850Z,6.58
2023-02-11T14:54:32.253Z,6.51
2023-02-11T14:57:37.688Z,6.41
2023-02-11T15:00:53.881Z,6.46
2023-02-11T15:04:29.220Z,6.34
2023-02-11T15:07:32.735Z,6.30
2023-02-11T15:10:45.632Z,6.25
2023-02-11T15:14:22.681Z,6.29
2023-02-11T15:17:49.215Z,6.06
2023-02-11T15:20:53.339Z,5.85
2023-02-11T15:24:21.987Z,5.68
2023-02-11T15:27:27.392Z,5.66
2023-02-11T15:30:35.448Z,5.58
2023-02-11T15:33:42.624Z,5.51
2023-02-11T15:36:48.268Z,5.52
2023-02-11T15:39:52.941Z,5.47
2023-02-11T15:43:19.607Z,5.46
2023-02-11T15:46:24.304Z,5.45
2023-02-11T15:49:33.410Z,5.35
2023-02-11T15:52:41.764Z,5.29
2023-02-11T15:55:46.490Z,5.26
2023-02-11T15:59:00.333Z,5.13
2023-02-11T16:02:16.905Z,5.06
2023-02-11T16:05:26.862Z,4.96
2023-02-11T16:08:30.000Z,4.90
2023-02-11T16:11:53.766Z,4.71
2023-02-11T16:16:05.790Z,4.69
2023-02-11T16:19:35.251Z,4.60
2023-02-11T16:22:58.511Z,4.49
2023-02-11T16:26:24.962Z,4.40
2023-02-11T16:29:55.682Z,4.35
2023-02-11T16:33:19.244Z,4.19
2023-02-11T16:36:27.436Z,4.25
2023-02-11T16:39:58.413Z,4.25
2023-02-11T16:43:22.996Z,4.09
2023-02-11T16:46:48.224Z,4.08
2023-02-11T16:49:51.551Z,4.08
2023-02-11T16:52:56.918Z,4.04
2023-02-11T16:56:29.059Z,4.08
2023-02-11T16:59:39.817Z,3.94
2023-02-11T17:02:47.176Z,3.85
2023-02-11T17:06:11.788Z,3.69
2023-02-11T17:09:35.439Z,3.75
2023-02-11T17:13:01.774Z,3.71
2023-02-11T17:16:25.295Z,3.50
2023-02-11T17:19:31.492Z,3.41
2023-02-11T17:22:58.229Z,3.30
2023-02-11T17:26:02.085Z,3.26
2023-02-11T17:29:12.356Z,3.33
2023-02-11T17:32:16.547Z,3.06
2023-02-11T17:35:42.291Z,2.98
2023-02-11T17:38:51.336Z,2.89
2023-02-11T17:41:56.671Z,2.81
2023-02-11T17:45:48.124Z,2.79
2023-02-11T17:49:30.645Z,2.77
2023-02-11T17:56:42.651Z,2.71
2023-02-11T17:59:49.064Z,2.65
2023-02-11T18:02:52.295Z,2.63
2023-02-11T18:06:01.194Z,2.82
2023-02-11T18:09:26.817Z,2.68
2023-02-11T18:12:50.232Z,2.61
2023-02-11T18:15:55.589Z,2.47
2023-02-11T18:19:03.604Z,2.50
2023-02-11T18:22:11.995Z,2.49
2023-02-11T18:25:21.635Z,2.52
2023-02-11T18:28:46.112Z,2.51
2023-02-11T18:32:14.413Z,2.54
2023-02-11T18:35:42.422Z,2.67
2023-02-11T18:38:48.753Z,2.77
2023-02-11T18:42:34.786Z,2.90
2023-02-11T18:46:12.966Z,3.02
2023-02-11T18:50:06.755Z,3.12
2023-02-11T18:53:20.110Z,3.09
2023-02-11T18:56:45.306Z,2.98
2023-02-11T19:00:31.207Z,2.94
2023-02-11T19:08:28.733Z,2.91
2023-02-11T19:11:48.856Z,2.92
2023-02-11T19:15:11.782Z,2.99
2023-02-11T19:18:19.076Z,3.08
2023-02-11T19:21:43.997Z,3.23
2023-02-11T19:24:54.338Z,3.33
2023-02-11T19:27:57.822Z,3.42
2023-02-11T19:31:48.872Z,3.39
2023-02-11T19:34:53.575Z,3.33
2023-02-11T19:38:04.987Z,3.24
2023-02-11T19:41:12.289Z,3.18
2023-02-11T19:44:36.407Z,3.14
2023-02-11T19:48:12.973Z,3.17
2023-02-11T19:51:19.250Z,3.22
2023-02-11T19:54:28.874Z,3.33
2023-02-11T19:57:55.837Z,3.33
2023-02-11T20:01:11.212Z,3.43
2023-02-11T20:04:54.833Z,3.44
2023-02-11T20:08:01.318Z,3.43
2023-02-11T20:11:16.318Z,3.38
2023-02-11T20:14:19.431Z,3.42
2023-02-11T20:18:04.735Z,3.49
2023-02-11T20:21:08.799Z,3.59
2023-02-11T20:24:34.636Z,3.87
2023-02-11T20:27:52.854Z,3.94
2023-02-11T20:31:18.684Z,4.03
2023-02-11T20:34:33.334Z,4.06
2023-02-11T20:38:05.654Z,4.03
2023-02-11T20:41:40.122Z,3.96
2023-02-11T20:45:06.128Z,3.86
2023-02-11T20:48:29.387Z,3.82
2023-02-11T20:51:35.123Z,3.72
2023-02-11T20:55:01.706Z,3.48
2023-02-11T20:58:06.940Z,3.41
2023-02-11T21:01:43.417Z,3.40
2023-02-11T21:05:14.985Z,3.33
2023-02-11T21:08:38.051Z,3.44
2023-02-11T21:11:44.028Z,3.66
2023-02-11T21:15:11.486Z,3.69
2023-02-11T21:18:37.319Z,3.75
2023-02-11T21:22:02.067Z,3.73
2023-02-11T21:25:45.548Z,3.84
2023-02-11T21:28:52.259Z,3.76
2023-02-11T21:32:17.779Z,3.91
2023-02-11T21:35:40.526Z,4.02
2023-02-11T21:39:07.176Z,4.09
2023-02-11T21:42:30.194Z,4.16
2023-02-11T21:45:34.994Z,4.22
2023-02-11T21:49:11.428Z,4.32
2023-02-11T21:52:14.364Z,4.38
2023-02-11T21:55:38.528Z,4.43
2023-02-11T21:58:47.459Z,4.41
2023-02-11T22:02:11.174Z,4.44
2023-02-11T22:05:35.107Z,4.53
2023-02-11T22:08:39.618Z,4.48
2023-02-11T22:11:50.234Z,4.43
2023-02-11T22:15:33.271Z,4.30
2023-02-11T22:18:38.272Z,4.25
2023-02-11T22:22:03.038Z,4.07
2023-02-11T22:25:26.421Z,4.04
2023-02-11T22:28:50.098Z,4.05
2023-02-11T22:31:55.489Z,3.82
2023-02-11T22:35:18.643Z,3.90
2023-02-11T22:38:43.470Z,3.90
2023-02-11T22:41:47.742Z,3.94
2023-02-11T22:45:11.813Z,3.83
2023-02-11T22:48:17.144Z,3.70
2023-02-11T22:51:41.112Z,3.82
2023-02-11T22:54:51.384Z,3.76
2023-02-11T22:57:57.323Z,3.71
2023-02-11T23:01:05.711Z,3.78
2023-02-11T23:04:14.074Z,3.74
2023-02-11T23:07:20.474Z,3.61
2023-02-11T23:10:24.037Z,3.57
2023-02-11T23:13:30.693Z,3.59
2023-02-11T23:16:35.565Z,3.52
2023-02-11T23:19:42.409Z,3.47
2023-02-11T23:23:13.939Z,3.58
2023-02-11T23:26:26.348Z,3.50
2023-02-11T23:29:36.149Z,3.35
2023-02-11T23:32:40.960Z,3.19
2023-02-11T23:36:05.479Z,3.19
2023-02-11T23:39:15.942Z,3.17
2023-02-11T23:42:21.788Z,3.03
2023-02-11T23:45:52.865Z,2.99
2023-02-11T23:49:21.018Z,3.34
2023-02-11T23:52:31.949Z,3.30
2023-02-11T23:55:39.969Z,3.33
2023-02-11T23:59:04.795Z,3.38
